createdAt,value
2022-10-10T00:01:28.240Z,11.12
2022-10-10T00:03:55.334Z,11.13
2022-10-10T00:06:22.963Z,11.13
2022-10-10T00:08:50.972Z,11.05
2022-10-10T00:11:19.251Z,11.02
2022-10-10T00:13:46.064Z,10.93
2022-10-10T00:19:27.883Z,10.78
2022-10-10T00:21:55.502Z,10.80
2022-10-10T00:24:22.175Z,10.70
2022-10-10T00:26:48.866Z,10.73
2022-10-10T00:29:16.116Z,10.72
2022-10-10T00:31:43.428Z,10.74
2022-10-10T00:34:10.218Z,10.82
2022-10-10T00:36:36.859Z,10.70
2022-10-10T00:39:28.683Z,10.70
2022-10-10T00:41:55.560Z,10.67
2022-10-10T00:44:22.698Z,10.71
2022-10-10T00:46:49.990Z,10.73
2022-10-10T00:49:19.402Z,10.70
2022-10-10T00:51:47.601Z,10.78
2022-10-10T00:54:16.091Z,10.86
2022-10-10T00:56:52.641Z,10.87
2022-10-10T00:59:20.078Z,10.87
2022-10-10T01:01:47.807Z,10.89
2022-10-10T01:04:33.710Z,10.91
2022-10-10T01:07:01.980Z,10.90
2022-10-10T01:09:28.962Z,10.90
2022-10-10T01:12:01.225Z,10.90
2022-10-10T01:14:35.858Z,10.87
2022-10-10T01:17:06.839Z,10.88
2022-10-10T01:19:33.987Z,10.87
2022-10-10T01:22:15.402Z,10.92
2022-10-10T01:24:42.766Z,10.87
2022-10-10T01:27:18.825Z,10.90
2022-10-10T01:29:49.150Z,10.92
2022-10-10T01:32:19.765Z,10.97
2022-10-10T01:34:47.467Z,11.01
2022-10-10T01:37:14.670Z,11.05
2022-10-10T01:39:41.566Z,11.10
2022-10-10T01:42:12.991Z,11.15
2022-10-10T01:44:44.167Z,11.23
2022-10-10T01:47:11.409Z,11.34
2022-10-10T01:49:39.348Z,11.45
2022-10-10T01:52:18.352Z,11.51
2022-10-10T01:54:45.003Z,11.48
2022-10-10T01:57:30.700Z,11.51
2022-10-10T02:00:07.334Z,11.52
2022-10-10T02:03:00.662Z,11.52
2022-10-10T02:05:40.475Z,11.49
2022-10-10T02:08:12.186Z,11.40
2022-10-10T02:10:51.075Z,11.34
2022-10-10T02:13:18.602Z,11.33
2022-10-10T02:15:48.564Z,11.25
2022-10-10T02:18:16.832Z,11.26
2022-10-10T02:21:09.348Z,11.30
2022-10-10T02:23:37.109Z,11.31
2022-10-10T02:26:04.379Z,11.34
2022-10-10T02:28:34.555Z,11.36
2022-10-10T02:31:04.600Z,11.41
2022-10-10T02:33:33.524Z,11.37
2022-10-10T02:36:02.062Z,11.42
2022-10-10T02:38:29.843Z,11.44
2022-10-10T02:40:58.514Z,11.36
2022-10-10T02:43:25.828Z,11.32
2022-10-10T02:45:53.995Z,11.38
2022-10-10T02:48:21.511Z,11.32
2022-10-10T02:50:48.946Z,11.33
2022-10-10T02:53:15.914Z,11.31
2022-10-10T02:56:07.518Z,11.26
2022-10-10T02:58:34.829Z,11.23
2022-10-10T03:01:01.535Z,11.30
2022-10-10T03:03:29.599Z,11.21
2022-10-10T03:05:56.369Z,11.26
2022-10-10T03:08:23.997Z,11.07
2022-10-10T03:10:55.026Z,11.06
2022-10-10T03:13:22.368Z,11.00
2022-10-10T03:15:49.217Z,11.00
2022-10-10T03:18:16.921Z,10.94
2022-10-10T03:20:47.649Z,10.98
2022-10-10T03:23:14.946Z,11.02
2022-10-10T03:25:42.984Z,11.02
2022-10-10T03:31:01.691Z,11.04
2022-10-10T03:33:28.319Z,11.04
2022-10-10T03:35:56.019Z,11.01
2022-10-10T03:41:14.494Z,11.16
2022-10-10T03:43:41.372Z,11.12
2022-10-10T03:48:58.975Z,11.05
2022-10-10T03:51:25.796Z,11.01
2022-10-10T03:53:52.635Z,11.01
2022-10-10T03:56:19.405Z,10.97
2022-10-10T03:58:46.796Z,10.96
2022-10-10T04:01:13.752Z,10.94
2022-10-10T04:03:41.249Z,10.95
2022-10-10T04:06:09.356Z,10.95
2022-10-10T04:08:36.370Z,10.98
2022-10-10T04:11:03.939Z,11.05
2022-10-10T04:13:31.272Z,11.08
2022-10-10T04:15:58.359Z,11.08
2022-10-10T04:18:25.580Z,11.09
2022-10-10T04:20:52.902Z,11.06
2022-10-10T04:23:19.821Z,10.95
2022-10-10T04:25:48.420Z,10.98
2022-10-10T04:28:16.164Z,10.92
2022-10-10T04:30:43.423Z,10.90
2022-10-10T04:33:10.384Z,10.91
2022-10-10T04:35:37.922Z,10.89
2022-10-10T04:38:05.474Z,10.88
2022-10-10T04:40:32.979Z,10.79
2022-10-10T04:42:59.925Z,10.76
2022-10-10T04:45:27.278Z,10.72
2022-10-10T04:47:54.396Z,10.74
2022-10-10T04:50:22.655Z,10.72
2022-10-10T04:52:49.884Z,10.68
2022-10-10T04:55:17.088Z,10.71
2022-10-10T05:00:35.211Z,10.80
2022-10-10T05:03:02.445Z,10.83
2022-10-10T05:05:29.282Z,10.87
2022-10-10T05:07:56.285Z,10.86
2022-10-10T05:10:24.632Z,10.91
2022-10-10T05:12:51.911Z,11.02
2022-10-10T05:15:19.712Z,10.97
2022-10-10T05:17:47.213Z,11.04
2022-10-10T05:20:14.194Z,11.06
2022-10-10T05:22:41.123Z,11.12
2022-10-10T05:27:35.947Z,11.22
2022-10-10T05:30:02.977Z,11.21
2022-10-10T05:32:31.433Z,11.28
2022-10-10T05:34:58.506Z,11.23
2022-10-10T05:37:25.382Z,11.33
2022-10-10T05:39:54.711Z,11.36
2022-10-10T05:42:22.000Z,11.35
2022-10-10T05:44:48.637Z,11.30
2022-10-10T05:47:15.559Z,11.39
2022-10-10T05:49:42.488Z,11.43
2022-10-10T05:52:09.582Z,11.42
2022-10-10T05:54:36.192Z,11.39
2022-10-10T05:57:03.144Z,11.37
2022-10-10T05:59:30.258Z,11.44
2022-10-10T06:01:57.571Z,11.46
2022-10-10T06:04:24.283Z,11.50
2022-10-10T06:06:51.703Z,11.48
2022-10-10T06:09:18.693Z,11.47
2022-10-10T06:11:45.456Z,11.57
2022-10-10T06:14:12.717Z,11.66
2022-10-10T06:16:39.872Z,11.74
2022-10-10T06:19:14.795Z,11.70
2022-10-10T06:21:42.573Z,11.77
2022-10-10T06:24:10.865Z,11.75
2022-10-10T06:26:38.105Z,11.73
2022-10-10T06:29:05.294Z,11.72
2022-10-10T06:31:32.698Z,11.72
2022-10-10T06:33:59.484Z,11.79
2022-10-10T06:36:26.585Z,11.68
2022-10-10T06:38:53.257Z,11.60
2022-10-10T06:41:20.125Z,11.55
2022-10-10T06:43:49.565Z,11.57
2022-10-10T06:46:16.481Z,11.59
2022-10-10T06:48:44.088Z,11.57
2022-10-10T06:51:13.701Z,11.55
2022-10-10T06:53:43.167Z,11.53
2022-10-10T06:56:18.296Z,11.62
2022-10-10T06:58:45.133Z,11.64
2022-10-10T07:01:12.313Z,11.69
2022-10-10T07:03:39.169Z,11.78
2022-10-10T07:06:08.705Z,11.73
2022-10-10T07:08:35.659Z,11.75
2022-10-10T07:11:02.680Z,11.77
2022-10-10T07:13:30.016Z,11.77
2022-10-10T07:15:56.852Z,11.79
2022-10-10T07:18:23.727Z,11.87
2022-10-10T07:20:50.538Z,11.94
2022-10-10T07:23:17.621Z,11.92
2022-10-10T07:25:44.319Z,12.01
2022-10-10T07:28:12.235Z,12.24
2022-10-10T07:30:40.314Z,12.28
2022-10-10T07:33:07.213Z,12.44
2022-10-10T07:35:34.560Z,12.48
2022-10-10T07:38:01.107Z,12.60
2022-10-10T07:40:28.044Z,12.60
2022-10-10T07:42:54.686Z,12.62
2022-10-10T07:45:21.825Z,12.55
2022-10-10T07:47:48.999Z,12.53
2022-10-10T07:50:15.945Z,12.51
2022-10-10T07:52:42.835Z,12.58
2022-10-10T07:55:10.107Z,12.63
2022-10-10T07:57:37.905Z,12.74
2022-10-10T08:00:06.459Z,12.85
2022-10-10T08:02:39.227Z,12.92
2022-10-10T08:05:06.296Z,13.06
2022-10-10T08:07:33.232Z,13.02
2022-10-10T08:10:00.241Z,13.11
2022-10-10T08:12:27.126Z,13.28
2022-10-10T08:14:53.857Z,13.31
2022-10-10T08:17:21.298Z,13.34
2022-10-10T08:19:49.454Z,13.18
2022-10-10T08:22:16.668Z,13.11
2022-10-10T08:24:43.520Z,13.03
2022-10-10T08:27:10.318Z,13.03
2022-10-10T08:29:37.382Z,13.03
2022-10-10T08:32:05.620Z,13.01
2022-10-10T08:34:32.971Z,13.08
2022-10-10T08:37:29.774Z,13.14
2022-10-10T08:39:59.701Z,13.19
2022-10-10T08:42:30.491Z,13.25
2022-10-10T08:45:01.426Z,13.35
2022-10-10T08:50:34.685Z,13.82
2022-10-10T08:53:03.701Z,13.99
2022-10-10T08:55:33.215Z,14.03
2022-10-10T09:00:54.412Z,14.22
2022-10-10T09:03:41.454Z,14.20
2022-10-10T09:06:27.958Z,14.15
2022-10-10T09:08:57.599Z,14.22
2022-10-10T09:11:25.088Z,14.36
2022-10-10T09:14:04.195Z,14.59
2022-10-10T09:16:41.891Z,14.87
2022-10-10T09:19:18.445Z,14.93
2022-10-10T09:21:46.849Z,14.88
2022-10-10T09:24:20.535Z,15.08
2022-10-10T09:26:52.836Z,15.32
2022-10-10T09:29:29.540Z,15.47
2022-10-10T09:32:04.040Z,15.56
2022-10-10T09:34:59.462Z,15.59
2022-10-10T09:37:48.008Z,15.66
2022-10-10T09:40:25.856Z,15.78
2022-10-10T09:42:52.618Z,15.73
2022-10-10T09:45:25.004Z,15.76
2022-10-10T09:47:54.725Z,15.82
2022-10-10T09:50:23.820Z,15.91
2022-10-10T09:52:51.685Z,16.02
2022-10-10T09:55:36.129Z,16.07
2022-10-10T09:58:15.023Z,16.12
2022-10-10T10:00:42.217Z,16.06
2022-10-10T10:03:09.503Z,16.08
2022-10-10T10:05:38.045Z,16.10
2022-10-10T10:08:04.875Z,15.98
2022-10-10T10:10:34.307Z,15.95
2022-10-10T10:13:01.445Z,15.98
2022-10-10T10:15:30.036Z,15.94
2022-10-10T10:18:20.790Z,15.78
2022-10-10T10:20:50.297Z,15.65
2022-10-10T10:23:25.172Z,15.67
2022-10-10T10:26:06.631Z,15.86
2022-10-10T10:28:40.608Z,16.11
2022-10-10T10:31:14.255Z,16.43
2022-10-10T10:33:41.115Z,16.76
2022-10-10T10:36:13.791Z,16.94
2022-10-10T10:38:41.154Z,17.06
2022-10-10T10:41:24.577Z,17.11
2022-10-10T10:43:56.896Z,17.08
2022-10-10T10:46:29.963Z,17.01
2022-10-10T10:49:02.624Z,16.97
2022-10-10T10:51:59.561Z,17.03
2022-10-10T10:58:05.154Z,17.08
2022-10-10T11:01:24.213Z,17.10
2022-10-10T11:05:18.503Z,17.09
2022-10-10T11:06:59.822Z,17.01
2022-10-10T11:09:49.036Z,17.09
2022-10-10T11:12:20.261Z,17.21
2022-10-10T11:14:52.166Z,17.18
2022-10-10T11:17:26.125Z,17.16
2022-10-10T11:20:46.491Z,17.12
2022-10-10T11:23:19.172Z,17.21
2022-10-10T11:26:07.136Z,17.27
2022-10-10T11:28:37.797Z,17.33
2022-10-10T11:31:11.844Z,17.32
2022-10-10T11:33:44.819Z,17.34
2022-10-10T11:36:25.545Z,17.31
2022-10-10T11:39:07.615Z,17.45
2022-10-10T11:41:38.612Z,17.48
2022-10-10T11:44:17.698Z,17.60
2022-10-10T11:46:52.260Z,17.78
2022-10-10T11:49:36.083Z,17.98
2022-10-10T11:52:35.168Z,18.17
2022-10-10T11:55:06.081Z,18.36
2022-10-10T11:57:44.926Z,18.52
2022-10-10T12:00:15.495Z,18.48
2022-10-10T12:02:43.707Z,18.33
2022-10-10T12:05:23.042Z,18.22
2022-10-10T12:08:00.262Z,17.99
2022-10-10T12:10:31.301Z,17.82
2022-10-10T12:12:59.121Z,17.69
2022-10-10T12:15:29.598Z,17.56
2022-10-10T12:17:56.974Z,17.42
2022-10-10T12:20:27.015Z,17.35
2022-10-10T12:23:24.666Z,17.34
2022-10-10T12:25:51.946Z,17.27
2022-10-10T12:28:19.392Z,17.24
2022-10-10T12:30:57.750Z,17.22
2022-10-10T12:33:31.243Z,17.27
2022-10-10T12:39:34.689Z,17.59
2022-10-10T12:42:01.904Z,17.74
2022-10-10T12:44:34.853Z,17.78
2022-10-10T12:47:35.908Z,17.87
2022-10-10T12:50:21.812Z,17.99
2022-10-10T12:52:49.949Z,18.06
2022-10-10T12:55:22.099Z,18.13
2022-10-10T12:57:50.812Z,18.17
2022-10-10T13:00:19.506Z,18.17
2022-10-10T13:02:48.522Z,18.17
2022-10-10T13:05:18.590Z,18.13
2022-10-10T13:07:46.061Z,18.17
2022-10-10T13:13:40.929Z,18.29
2022-10-10T13:16:14.852Z,18.38
2022-10-10T13:19:01.775Z,18.49
2022-10-10T13:21:31.446Z,18.52
2022-10-10T13:24:05.826Z,18.58
2022-10-10T13:26:43.482Z,18.61
2022-10-10T13:29:12.988Z,18.64
2022-10-10T13:31:41.407Z,18.67
2022-10-10T13:34:08.627Z,18.61
2022-10-10T13:36:36.514Z,18.61
2022-10-10T13:39:03.722Z,18.59
2022-10-10T13:41:30.943Z,18.63
2022-10-10T13:43:59.022Z,18.62
2022-10-10T13:46:50.612Z,18.63
2022-10-10T13:49:22.293Z,18.61
2022-10-10T13:52:00.256Z,18.64
2022-10-10T13:54:46.853Z,18.67
2022-10-10T13:57:15.639Z,18.72
2022-10-10T13:59:42.843Z,18.71
2022-10-10T14:02:13.208Z,18.75
2022-10-10T14:04:44.899Z,18.70
2022-10-10T14:07:29.520Z,18.70
2022-10-10T14:10:01.385Z,18.76
2022-10-10T14:12:30.428Z,18.77
2022-10-10T14:14:58.606Z,18.81
2022-10-10T14:17:26.719Z,18.82
2022-10-10T14:19:54.072Z,18.85
2022-10-10T14:22:21.952Z,18.85
2022-10-10T14:24:51.806Z,18.83
2022-10-10T14:27:22.763Z,18.87
2022-10-10T14:29:50.241Z,18.78
2022-10-10T14:32:17.604Z,18.70
2022-10-10T14:34:44.815Z,18.66
2022-10-10T14:37:31.984Z,18.64
2022-10-10T14:39:59.574Z,18.65
2022-10-10T14:42:27.163Z,18.59
2022-10-10T14:44:55.109Z,18.56
2022-10-10T14:47:24.922Z,18.55
2022-10-10T14:49:57.577Z,18.44
2022-10-10T14:52:24.406Z,18.37
2022-10-10T14:54:51.562Z,18.32
2022-10-10T15:00:15.168Z,18.23
2022-10-10T15:02:45.569Z,18.13
2022-10-10T15:05:13.404Z,18.05
2022-10-10T15:07:40.153Z,18.00
2022-10-10T15:10:32.814Z,17.99
2022-10-10T15:12:55.202Z,17.94
2022-10-10T15:15:23.007Z,17.89
2022-10-10T15:17:50.495Z,17.84
2022-10-10T15:20:17.569Z,17.77
2022-10-10T15:22:46.548Z,17.71
2022-10-10T15:25:14.437Z,17.66
2022-10-10T15:27:41.017Z,17.61
2022-10-10T15:30:08.535Z,17.57
2022-10-10T15:32:37.585Z,17.51
2022-10-10T15:35:07.776Z,17.48
2022-10-10T15:37:34.865Z,17.46
2022-10-10T15:40:01.563Z,17.35
2022-10-10T15:42:30.619Z,17.38
2022-10-10T15:44:57.560Z,17.36
2022-10-10T15:47:26.107Z,17.33
2022-10-10T15:49:52.861Z,17.30
2022-10-10T15:52:19.731Z,17.27
2022-10-10T15:54:48.925Z,17.24
2022-10-10T15:57:18.650Z,17.21
2022-10-10T16:02:41.403Z,17.12
2022-10-10T16:05:10.139Z,17.05
2022-10-10T16:07:47.991Z,16.99
2022-10-10T16:10:30.839Z,16.93
2022-10-10T16:12:57.860Z,16.87
2022-10-10T16:15:24.660Z,16.82
2022-10-10T16:17:51.979Z,16.75
2022-10-10T16:20:18.873Z,16.70
2022-10-10T16:22:45.660Z,16.66
2022-10-10T16:25:27.825Z,16.61
2022-10-10T16:27:55.487Z,16.50
2022-10-10T16:30:22.358Z,16.51
2022-10-10T16:32:49.634Z,16.46
2022-10-10T16:35:16.712Z,16.43
2022-10-10T16:37:45.379Z,16.38
2022-10-10T16:40:18.327Z,16.37
2022-10-10T16:42:49.744Z,16.37
2022-10-10T16:45:16.986Z,16.35
2022-10-10T16:47:44.253Z,16.34
2022-10-10T16:50:11.304Z,16.34
2022-10-10T16:52:39.048Z,16.34
2022-10-10T16:55:06.773Z,16.34
2022-10-10T16:57:34.830Z,16.36
2022-10-10T17:00:02.039Z,16.34
2022-10-10T17:02:30.131Z,16.33
2022-10-10T17:04:58.528Z,16.32
2022-10-10T17:07:25.129Z,16.28
2022-10-10T17:09:52.441Z,16.27
2022-10-10T17:12:19.678Z,16.23
2022-10-10T17:14:47.165Z,16.19
2022-10-10T17:17:39.183Z,16.14
2022-10-10T17:20:06.344Z,16.09
2022-10-10T17:22:33.994Z,16.06
2022-10-10T17:25:02.881Z,16.00
2022-10-10T17:30:21.169Z,15.91
2022-10-10T17:32:49.135Z,15.85
2022-10-10T17:35:16.188Z,15.75
2022-10-10T17:37:42.965Z,15.66
2022-10-10T17:40:18.682Z,15.59
2022-10-10T17:42:49.963Z,15.53
2022-10-10T17:45:35.516Z,15.47
2022-10-10T17:48:07.399Z,15.41
2022-10-10T17:50:39.119Z,15.37
2022-10-10T17:53:06.641Z,15.35
2022-10-10T17:55:34.921Z,15.31
2022-10-10T17:58:02.879Z,15.27
2022-10-10T18:00:30.372Z,15.25
2022-10-10T18:03:11.726Z,15.21
2022-10-10T18:05:50.238Z,15.14
2022-10-10T18:08:42.685Z,15.10
2022-10-10T18:11:14.131Z,15.07
2022-10-10T18:13:41.947Z,15.02
2022-10-10T18:16:10.291Z,14.98
2022-10-10T18:18:38.442Z,14.93
2022-10-10T18:21:07.083Z,14.87
2022-10-10T18:23:36.384Z,14.80
2022-10-10T18:26:07.470Z,14.76
2022-10-10T18:28:36.287Z,14.71
2022-10-10T18:31:12.326Z,14.70
2022-10-10T18:33:41.021Z,14.67
2022-10-10T18:36:08.888Z,14.64
2022-10-10T18:38:36.038Z,14.63
2022-10-10T18:41:13.964Z,14.61
2022-10-10T18:43:45.864Z,14.59
2022-10-10T18:46:14.286Z,14.54
2022-10-10T18:51:33.374Z,14.42
2022-10-10T18:54:04.591Z,14.38
2022-10-10T18:56:33.044Z,14.33
2022-10-10T18:59:04.264Z,14.31
2022-10-10T19:01:33.666Z,14.27
2022-10-10T19:04:01.721Z,14.24
2022-10-10T19:06:29.063Z,14.18
2022-10-10T19:08:57.743Z,14.14
2022-10-10T19:11:26.911Z,14.06
2022-10-10T19:13:54.404Z,13.99
2022-10-10T19:16:24.322Z,13.95
2022-10-10T19:18:53.348Z,13.89
2022-10-10T19:21:22.816Z,13.81
2022-10-10T19:23:49.853Z,13.74
2022-10-10T19:26:17.115Z,13.68
2022-10-10T19:28:44.746Z,13.62
2022-10-10T19:34:04.695Z,13.56
2022-10-10T19:36:31.713Z,13.52
2022-10-10T19:38:59.438Z,13.50
2022-10-10T19:41:26.555Z,13.52
2022-10-10T19:43:53.486Z,13.51
2022-10-10T19:46:22.795Z,13.54
2022-10-10T19:48:49.769Z,13.57
2022-10-10T19:51:18.401Z,13.57
2022-10-10T19:53:45.089Z,13.59
2022-10-10T19:56:13.709Z,13.62
2022-10-10T19:58:41.088Z,13.65
2022-10-10T20:01:11.095Z,13.68
2022-10-10T20:03:38.590Z,13.69
2022-10-10T20:06:06.555Z,13.73
2022-10-10T20:08:34.308Z,13.77
2022-10-10T20:11:02.440Z,13.79
2022-10-10T20:13:30.023Z,13.78
2022-10-10T20:16:00.410Z,13.75
2022-10-10T20:18:27.483Z,13.75
2022-10-10T20:20:54.068Z,13.70
2022-10-10T20:23:23.058Z,13.68
2022-10-10T20:25:49.925Z,13.67
2022-10-10T20:28:18.100Z,13.65
2022-10-10T20:30:48.339Z,13.59
2022-10-10T20:33:21.510Z,13.56
2022-10-10T20:36:02.262Z,13.50
2022-10-10T20:44:13.964Z,13.46
2022-10-10T20:46:42.823Z,13.44
2022-10-10T20:49:14.474Z,13.44
2022-10-10T20:51:41.446Z,13.44
2022-10-10T20:54:11.825Z,13.44
2022-10-10T20:56:38.526Z,13.41
2022-10-10T20:59:07.483Z,13.41
2022-10-10T21:01:35.255Z,13.39
2022-10-10T21:04:02.413Z,13.41
2022-10-10T21:06:54.392Z,13.34
2022-10-10T21:09:22.055Z,13.31
2022-10-10T21:11:52.500Z,13.29
2022-10-10T21:14:19.404Z,13.22
2022-10-10T21:16:46.766Z,13.16
2022-10-10T21:19:15.526Z,13.19
2022-10-10T21:21:42.617Z,13.16
2022-10-10T21:24:14.147Z,13.10
2022-10-10T21:26:42.419Z,13.03
2022-10-10T21:29:13.360Z,13.03
2022-10-10T21:31:42.116Z,13.01
2022-10-10T21:34:13.475Z,12.98
2022-10-10T21:36:40.985Z,12.98
2022-10-10T21:39:07.983Z,12.94
2022-10-10T21:41:37.284Z,12.89
2022-10-10T21:44:04.286Z,12.85
2022-10-10T21:46:55.795Z,12.83
2022-10-10T21:49:22.496Z,12.82
2022-10-10T21:51:50.288Z,12.79
2022-10-10T21:54:17.257Z,12.79
2022-10-10T21:56:44.339Z,12.77
2022-10-10T21:59:11.609Z,12.76
2022-10-10T22:01:38.383Z,12.76
2022-10-10T22:04:05.850Z,12.75
2022-10-10T22:06:32.711Z,12.73
2022-10-10T22:09:00.442Z,12.68
2022-10-10T22:11:28.904Z,12.65
2022-10-10T22:13:55.930Z,12.67
2022-10-10T22:16:23.092Z,12.62
2022-10-10T22:18:53.600Z,12.64
2022-10-10T22:21:20.676Z,12.60
2022-10-10T22:23:47.632Z,12.66
2022-10-10T22:26:15.806Z,12.64
2022-10-10T22:28:44.793Z,12.62
2022-10-10T22:31:13.283Z,12.62
2022-10-10T22:33:40.065Z,12.58
2022-10-10T22:36:07.901Z,12.53
2022-10-10T22:38:39.893Z,12.51
2022-10-10T22:41:06.746Z,12.53
2022-10-10T22:43:33.437Z,12.52
2022-10-10T22:46:01.271Z,12.46
2022-10-10T22:48:28.606Z,12.49
2022-10-10T22:51:21.043Z,12.53
2022-10-10T22:53:48.181Z,12.46
2022-10-10T22:56:17.688Z,12.43
2022-10-10T22:58:44.888Z,12.41
2022-10-10T23:01:13.717Z,12.43
2022-10-10T23:03:41.765Z,12.42
2022-10-10T23:06:09.799Z,12.41
2022-10-10T23:08:36.554Z,12.39
2022-10-10T23:11:03.555Z,12.40
2022-10-10T23:13:31.340Z,12.47
2022-10-10T23:15:58.048Z,12.43
2022-10-10T23:18:24.851Z,12.43
2022-10-10T23:20:52.143Z,12.44
2022-10-10T23:23:18.979Z,12.41
2022-10-10T23:28:39.756Z,12.46
2022-10-10T23:31:07.822Z,12.49
2022-10-10T23:33:37.067Z,12.51
2022-10-10T23:36:08.122Z,12.50
2022-10-10T23:38:35.350Z,12.48
2022-10-10T23:41:03.184Z,12.49
2022-10-10T23:43:31.928Z,12.47
2022-10-10T23:45:59.860Z,12.42
2022-10-10T23:48:26.681Z,12.37
2022-10-10T23:50:53.924Z,12.36
2022-10-10T23:53:21.014Z,12.34
2022-10-10T23:55:48.472Z,12.27
2022-10-10T23:58:16.454Z,12.27
